createdAt,value
2018-09-19T00:00:02.837Z,15.80
2018-09-19T00:02:31.635Z,15.80
2018-09-19T00:04:59.770Z,15.80
2018-09-19T00:07:27.875Z,15.80
2018-09-19T00:09:55.916Z,15.80
2018-09-19T00:12:24.030Z,15.80
2018-09-19T00:14:52.149Z,15.80
2018-09-19T00:17:20.301Z,15.80
2018-09-19T00:19:48.363Z,15.70
2018-09-19T00:22:16.435Z,15.70
2018-09-19T00:24:44.487Z,15.70
2018-09-19T00:27:12.531Z,15.60
2018-09-19T00:29:40.581Z,15.60
2018-09-19T00:32:08.690Z,15.60
2018-09-19T00:34:37.408Z,15.50
2018-09-19T00:37:05.488Z,15.40
2018-09-19T00:39:33.562Z,15.40
2018-09-19T00:42:01.618Z,15.40
2018-09-19T00:44:29.717Z,15.50
2018-09-19T00:46:57.891Z,15.40
2018-09-19T00:49:26.180Z,15.40
2018-09-19T00:51:54.318Z,15.30
2018-09-19T00:54:22.383Z,15.40
2018-09-19T00:56:50.473Z,15.30
2018-09-19T00:59:18.507Z,15.30
2018-09-19T01:01:46.540Z,15.30
2018-09-19T01:04:14.680Z,15.30
2018-09-19T01:06:42.781Z,15.30
2018-09-19T01:09:10.868Z,15.30
2018-09-19T01:11:39.338Z,15.30
2018-09-19T01:14:07.457Z,15.30
2018-09-19T01:16:35.622Z,15.30
2018-09-19T01:19:03.703Z,15.20
2018-09-19T01:21:31.785Z,15.20
2018-09-19T01:23:59.863Z,15.20
2018-09-19T01:26:27.912Z,15.20
2018-09-19T01:28:55.995Z,15.20
2018-09-19T01:31:24.068Z,15.10
2018-09-19T01:33:52.177Z,15.10
2018-09-19T01:36:20.231Z,15.10
2018-09-19T01:38:48.326Z,15.10
2018-09-19T01:41:16.391Z,15.10
2018-09-19T01:43:44.515Z,15.10
2018-09-19T01:46:12.626Z,15.10
2018-09-19T01:48:40.680Z,15.00
2018-09-19T01:51:08.820Z,15.00
2018-09-19T01:53:36.923Z,15.10
2018-09-19T01:56:05.023Z,15.10
2018-09-19T01:58:33.089Z,15.00
2018-09-19T02:01:01.213Z,15.10
2018-09-19T02:03:29.254Z,15.00
2018-09-19T02:05:57.329Z,15.00
2018-09-19T02:08:25.364Z,15.10
2018-09-19T02:10:53.444Z,15.10
2018-09-19T02:13:21.543Z,15.00
2018-09-19T02:15:49.572Z,15.00
2018-09-19T02:18:17.675Z,15.00
2018-09-19T02:20:45.765Z,15.00
2018-09-19T02:23:13.848Z,14.90
2018-09-19T02:25:41.892Z,15.00
2018-09-19T02:28:10.060Z,14.90
2018-09-19T02:30:38.109Z,14.90
2018-09-19T02:33:06.289Z,14.90
2018-09-19T02:35:34.323Z,14.90
2018-09-19T02:38:02.391Z,14.90
2018-09-19T02:40:30.468Z,14.90
2018-09-19T02:42:58.531Z,14.90
2018-09-19T02:45:26.603Z,14.90
2018-09-19T02:47:54.664Z,14.90
2018-09-19T02:50:22.750Z,14.90
2018-09-19T02:52:55.713Z,14.90
2018-09-19T02:55:24.732Z,14.80
2018-09-19T02:57:52.834Z,14.70
2018-09-19T03:00:21.040Z,14.80
2018-09-19T03:02:49.428Z,14.80
2018-09-19T03:05:17.570Z,14.70
2018-09-19T03:07:45.744Z,14.80
2018-09-19T03:10:13.821Z,14.80
2018-09-19T03:12:42.048Z,14.80
2018-09-19T03:15:10.097Z,14.80
2018-09-19T03:17:38.269Z,14.80
2018-09-19T03:20:06.254Z,14.80
2018-09-19T03:22:34.372Z,14.80
2018-09-19T03:25:02.570Z,14.70
2018-09-19T03:27:30.635Z,14.70
2018-09-19T03:29:58.725Z,14.70
2018-09-19T03:32:26.802Z,14.70
2018-09-19T03:34:54.887Z,14.70
2018-09-19T03:37:22.973Z,14.60
2018-09-19T03:39:51.024Z,14.60
2018-09-19T03:42:19.110Z,14.60
2018-09-19T03:44:47.165Z,14.60
2018-09-19T03:47:15.286Z,14.60
2018-09-19T03:49:43.349Z,14.60
2018-09-19T03:52:11.422Z,14.60
2018-09-19T03:54:39.497Z,14.60
2018-09-19T03:57:07.610Z,14.60
2018-09-19T03:59:35.672Z,14.60
2018-09-19T04:02:03.754Z,14.50
2018-09-19T04:04:31.813Z,14.50
2018-09-19T04:06:59.897Z,14.50
2018-09-19T04:09:27.965Z,14.50
2018-09-19T04:11:56.005Z,14.50
2018-09-19T04:14:24.089Z,14.50
2018-09-19T04:16:52.145Z,14.50
2018-09-19T04:19:20.244Z,14.50
2018-09-19T04:21:50.392Z,14.50
2018-09-19T04:24:18.535Z,14.50
2018-09-19T04:26:46.749Z,14.50
2018-09-19T04:29:15.007Z,14.50
2018-09-19T04:31:43.399Z,14.50
2018-09-19T04:34:11.442Z,14.50
2018-09-19T04:36:39.591Z,14.50
2018-09-19T04:39:09.468Z,14.50
2018-09-19T04:41:37.638Z,14.50
2018-09-19T04:44:06.509Z,14.50
2018-09-19T04:46:34.788Z,14.50
2018-09-19T04:49:02.910Z,14.50
2018-09-19T04:51:31.013Z,14.50
2018-09-19T04:53:59.075Z,14.50
2018-09-19T04:56:27.153Z,14.50
2018-09-19T04:58:55.233Z,14.50
2018-09-19T05:01:23.352Z,14.50
2018-09-19T05:03:51.417Z,14.50
2018-09-19T05:06:19.475Z,14.60
2018-09-19T05:08:47.583Z,14.50
2018-09-19T05:11:15.710Z,14.60
2018-09-19T05:13:43.740Z,14.70
2018-09-19T05:16:11.800Z,14.70
2018-09-19T05:18:39.888Z,14.80
2018-09-19T05:21:08.085Z,14.80
2018-09-19T05:23:36.324Z,14.90
2018-09-19T05:26:04.417Z,15.00
2018-09-19T05:28:32.521Z,14.90
2018-09-19T05:31:00.970Z,15.00
2018-09-19T05:33:29.091Z,15.00
2018-09-19T05:35:57.148Z,15.20
2018-09-19T05:38:25.281Z,15.30
2018-09-19T05:40:53.738Z,15.50
2018-09-19T05:43:21.989Z,15.70
2018-09-19T05:45:50.067Z,15.90
2018-09-19T05:48:18.175Z,16.00
2018-09-19T05:50:46.218Z,16.10
2018-09-19T05:53:14.348Z,16.30
2018-09-19T05:55:42.452Z,16.40
2018-09-19T05:58:10.552Z,16.50
2018-09-19T06:00:38.625Z,16.60
2018-09-19T06:03:06.763Z,16.80
2018-09-19T06:05:34.853Z,16.80
2018-09-19T06:08:03.019Z,17.10
2018-09-19T06:10:31.128Z,17.30
2018-09-19T06:12:59.308Z,17.40
2018-09-19T06:15:27.424Z,17.70
2018-09-19T06:17:55.504Z,17.90
2018-09-19T06:20:23.648Z,18.10
2018-09-19T06:22:51.732Z,18.30
2018-09-19T06:25:19.879Z,18.30
2018-09-19T06:27:48.001Z,18.50
2018-09-19T06:30:16.102Z,18.70
2018-09-19T06:32:44.159Z,18.90
2018-09-19T06:35:12.259Z,18.90
2018-09-19T06:37:40.359Z,18.80
2018-09-19T06:40:08.519Z,18.80
2018-09-19T06:42:37.393Z,18.80
2018-09-19T06:45:05.574Z,18.80
2018-09-19T06:47:33.651Z,18.90
2018-09-19T06:50:01.749Z,18.90
2018-09-19T06:52:29.876Z,19.00
2018-09-19T06:54:57.868Z,19.40
2018-09-19T06:57:25.937Z,19.70
2018-09-19T06:59:54.171Z,20.00
2018-09-19T07:02:22.208Z,20.20
2018-09-19T07:04:51.222Z,20.50
2018-09-19T07:07:19.950Z,20.90
2018-09-19T07:09:48.117Z,21.40
2018-09-19T07:12:16.174Z,21.50
2018-09-19T07:14:44.226Z,22.10
2018-09-19T07:17:12.272Z,22.50
2018-09-19T07:19:40.343Z,23.00
2018-09-19T07:22:08.413Z,23.00
2018-09-19T07:24:36.477Z,23.20
2018-09-19T07:27:04.697Z,23.50
2018-09-19T07:29:32.776Z,23.90
2018-09-19T07:32:00.855Z,23.90
2018-09-19T07:34:28.955Z,24.10
2018-09-19T07:36:57.033Z,24.50
2018-09-19T07:39:25.993Z,24.80
2018-09-19T07:41:54.069Z,24.80
2018-09-19T07:44:22.249Z,24.70
2018-09-19T07:46:50.320Z,25.10
2018-09-19T07:49:18.385Z,25.30
2018-09-19T07:51:46.452Z,25.40
2018-09-19T07:54:14.544Z,25.30
2018-09-19T07:56:42.620Z,25.40
2018-09-19T07:59:11.178Z,25.50
2018-09-19T08:01:39.290Z,26.00
2018-09-19T08:04:07.441Z,26.70
2018-09-19T08:06:35.491Z,26.60
2018-09-19T08:09:04.371Z,26.40
2018-09-19T08:11:32.457Z,26.30
2018-09-19T08:14:01.316Z,26.60
2018-09-19T08:16:29.405Z,26.90
2018-09-19T08:18:57.468Z,27.10
2018-09-19T08:21:25.771Z,28.10
2018-09-19T08:23:53.826Z,28.00
2018-09-19T08:26:21.919Z,28.50
2018-09-19T08:28:49.980Z,28.40
2018-09-19T08:31:18.042Z,29.10
2018-09-19T08:33:46.317Z,29.70
2018-09-19T08:36:14.392Z,29.40
2018-09-19T08:38:42.480Z,29.20
2018-09-19T08:41:10.548Z,28.80
2018-09-19T08:43:38.605Z,29.50
2018-09-19T08:46:06.666Z,29.50
2018-09-19T08:48:34.721Z,29.80
2018-09-19T08:51:02.874Z,29.40
2018-09-19T08:53:30.886Z,29.70
2018-09-19T08:55:58.945Z,31.30
2018-09-19T08:58:27.043Z,31.30
2018-09-19T09:00:55.176Z,31.90
2018-09-19T09:03:23.234Z,31.80
2018-09-19T09:05:51.288Z,31.30
2018-09-19T09:08:19.377Z,32.90
2018-09-19T09:10:47.476Z,31.30
2018-09-19T09:13:16.079Z,31.30
2018-09-19T09:15:44.135Z,31.10
2018-09-19T09:18:12.229Z,30.80
2018-09-19T09:20:40.484Z,31.30
2018-09-19T09:23:08.667Z,31.40
2018-09-19T09:25:36.740Z,30.90
2018-09-19T09:28:04.937Z,30.50
2018-09-19T09:30:33.116Z,31.10
2018-09-19T09:33:01.184Z,30.80
2018-09-19T09:35:29.238Z,31.40
2018-09-19T09:37:57.320Z,31.40
2018-09-19T09:40:25.539Z,31.30
2018-09-19T09:42:53.530Z,32.20
2018-09-19T09:45:21.612Z,32.10
2018-09-19T09:47:50.693Z,32.50
2018-09-19T09:50:18.807Z,31.80
2018-09-19T09:52:46.852Z,31.90
2018-09-19T09:55:14.951Z,31.20
2018-09-19T09:57:43.156Z,31.50
2018-09-19T10:00:11.240Z,31.10
2018-09-19T10:02:39.346Z,30.40
2018-09-19T10:05:07.483Z,29.80
2018-09-19T10:07:35.613Z,29.20
2018-09-19T10:10:03.698Z,28.70
2018-09-19T10:12:31.838Z,28.40
2018-09-19T10:14:59.917Z,28.30
2018-09-19T10:17:27.970Z,28.20
2018-09-19T10:19:56.114Z,28.00
2018-09-19T10:22:24.163Z,27.90
2018-09-19T10:24:52.238Z,27.70
2018-09-19T10:27:20.304Z,27.60
2018-09-19T10:29:48.372Z,27.60
2018-09-19T10:32:16.445Z,28.00
2018-09-19T10:34:44.502Z,27.80
2018-09-19T10:37:12.637Z,28.20
2018-09-19T10:39:40.789Z,28.70
2018-09-19T10:42:09.163Z,29.10
2018-09-19T10:44:37.233Z,29.70
2018-09-19T10:47:05.300Z,30.70
2018-09-19T10:49:33.390Z,31.10
2018-09-19T10:52:01.423Z,31.10
2018-09-19T10:54:29.495Z,31.40
2018-09-19T10:56:57.653Z,31.50
2018-09-19T10:59:25.714Z,30.60
2018-09-19T11:01:53.832Z,30.60
2018-09-19T11:04:21.903Z,30.70
2018-09-19T11:06:50.038Z,31.20
2018-09-19T11:09:18.146Z,31.70
2018-09-19T11:11:46.244Z,32.50
2018-09-19T11:14:14.307Z,32.90
2018-09-19T11:16:42.414Z,33.50
2018-09-19T11:19:10.589Z,33.50
2018-09-19T11:21:38.700Z,33.90
2018-09-19T11:24:07.486Z,34.40
2018-09-19T11:26:35.596Z,34.10
2018-09-19T11:29:03.710Z,34.80
2018-09-19T11:31:31.855Z,35.40
2018-09-19T11:33:59.897Z,35.60
2018-09-19T11:36:28.050Z,36.60
2018-09-19T11:38:56.127Z,36.50
2018-09-19T11:41:24.196Z,35.60
2018-09-19T11:43:52.269Z,36.00
2018-09-19T11:46:20.320Z,35.00
2018-09-19T11:48:48.408Z,35.60
2018-09-19T11:51:16.483Z,35.80
2018-09-19T11:53:44.592Z,36.50
2018-09-19T11:56:12.673Z,36.40
2018-09-19T11:58:40.730Z,35.80
2018-09-19T12:01:08.826Z,35.00
2018-09-19T12:03:36.908Z,34.10
2018-09-19T12:06:05.114Z,32.90
2018-09-19T12:08:37.921Z,32.40
2018-09-19T12:11:06.325Z,33.00
2018-09-19T12:13:34.389Z,34.50
2018-09-19T12:16:02.479Z,34.90
2018-09-19T12:18:30.605Z,35.20
2018-09-19T12:20:58.716Z,36.20
2018-09-19T12:23:26.807Z,36.60
2018-09-19T12:25:54.853Z,36.80
2018-09-19T12:28:23.003Z,35.90
2018-09-19T12:30:51.090Z,34.60
2018-09-19T12:33:19.260Z,33.60
2018-09-19T12:35:47.354Z,32.80
2018-09-19T12:38:15.503Z,32.40
2018-09-19T12:40:43.639Z,32.00
2018-09-19T12:43:11.752Z,32.00
2018-09-19T12:45:39.924Z,31.80
2018-09-19T12:48:08.029Z,31.80
2018-09-19T12:50:36.170Z,31.30
2018-09-19T12:53:04.272Z,31.40
2018-09-19T12:55:32.346Z,31.70
2018-09-19T12:58:00.540Z,32.00
2018-09-19T13:00:28.871Z,31.70
2018-09-19T13:02:56.955Z,31.70
2018-09-19T13:05:25.095Z,31.40
2018-09-19T13:07:53.148Z,31.50
2018-09-19T13:10:21.252Z,32.60
2018-09-19T13:12:49.334Z,33.20
2018-09-19T13:15:17.418Z,33.20
2018-09-19T13:17:45.515Z,33.70
2018-09-19T13:20:13.586Z,34.70
2018-09-19T13:22:41.668Z,34.60
2018-09-19T13:25:09.735Z,32.90
2018-09-19T13:27:37.768Z,32.80
2018-09-19T13:30:05.921Z,31.90
2018-09-19T13:32:34.048Z,31.50
2018-09-19T13:35:02.163Z,31.00
2018-09-19T13:37:30.485Z,30.60
2018-09-19T13:39:58.818Z,30.50
2018-09-19T13:42:26.992Z,30.20
2018-09-19T13:44:55.166Z,30.00
2018-09-19T13:47:23.283Z,29.80
2018-09-19T13:49:57.967Z,29.30
2018-09-19T13:52:26.080Z,29.30
2018-09-19T13:54:54.258Z,29.80
2018-09-19T13:57:22.534Z,30.50
2018-09-19T13:59:50.705Z,30.70
2018-09-19T14:02:19.146Z,30.60
2018-09-19T14:04:47.324Z,29.90
2018-09-19T14:07:15.535Z,29.50
2018-09-19T14:09:43.669Z,29.30
2018-09-19T14:12:11.950Z,28.30
2018-09-19T14:14:40.158Z,27.60
2018-09-19T14:17:08.397Z,27.10
2018-09-19T14:19:36.607Z,26.90
2018-09-19T14:22:04.752Z,27.00
2018-09-19T14:24:32.850Z,27.10
2018-09-19T14:27:01.099Z,26.70
2018-09-19T14:29:29.475Z,26.60
2018-09-19T14:31:57.648Z,26.40
2018-09-19T14:34:25.749Z,26.50
2018-09-19T14:36:53.925Z,26.70
2018-09-19T14:39:22.204Z,26.60
2018-09-19T14:41:50.372Z,26.60
2018-09-19T14:44:18.531Z,26.50
2018-09-19T14:46:46.626Z,26.40
2018-09-19T14:49:14.793Z,26.10
2018-09-19T14:51:42.947Z,25.90
2018-09-19T14:54:11.139Z,25.90
2018-09-19T14:56:39.291Z,25.80
2018-09-19T14:59:07.392Z,25.90
2018-09-19T15:01:35.498Z,26.10
2018-09-19T15:04:03.601Z,26.30
2018-09-19T15:06:31.656Z,26.40
2018-09-19T15:08:59.733Z,26.50
2018-09-19T15:11:27.837Z,26.50
2018-09-19T15:13:55.928Z,26.50
2018-09-19T15:16:23.966Z,26.40
2018-09-19T15:18:52.062Z,26.20
2018-09-19T15:21:20.188Z,26.10
2018-09-19T15:23:48.360Z,25.90
2018-09-19T15:26:16.379Z,26.00
2018-09-19T15:28:44.459Z,26.00
2018-09-19T15:31:12.556Z,26.00
2018-09-19T15:33:40.633Z,26.10
2018-09-19T15:36:08.774Z,26.00
2018-09-19T15:38:36.802Z,26.00
2018-09-19T15:41:04.868Z,25.90
2018-09-19T15:43:33.066Z,25.70
2018-09-19T15:46:01.199Z,25.60
2018-09-19T15:48:29.335Z,25.60
2018-09-19T15:50:57.442Z,25.60
2018-09-19T15:53:29.891Z,25.50
2018-09-19T15:55:58.079Z,25.50
2018-09-19T15:58:26.232Z,25.30
2018-09-19T16:00:54.370Z,25.30
2018-09-19T16:03:22.797Z,25.30
2018-09-19T16:05:51.244Z,25.30
2018-09-19T16:08:19.296Z,25.10
2018-09-19T16:10:47.394Z,25.10
2018-09-19T16:13:15.593Z,25.20
2018-09-19T16:15:43.660Z,25.20
2018-09-19T16:18:11.760Z,25.20
2018-09-19T16:20:39.866Z,25.10
2018-09-19T16:23:07.989Z,25.00
2018-09-19T16:25:36.123Z,24.90
2018-09-19T16:28:04.256Z,24.70
2018-09-19T16:30:32.402Z,24.40
2018-09-19T16:33:00.514Z,24.20
2018-09-19T16:35:28.578Z,24.00
2018-09-19T16:37:57.034Z,23.80
2018-09-19T16:40:25.290Z,23.50
2018-09-19T16:42:53.754Z,23.20
2018-09-19T16:45:21.971Z,22.90
2018-09-19T16:47:50.219Z,22.80
2018-09-19T16:50:18.634Z,22.70
2018-09-19T16:52:46.806Z,22.70
2018-09-19T16:55:15.214Z,22.60
2018-09-19T16:57:43.404Z,22.40
2018-09-19T17:00:14.007Z,22.20
2018-09-19T17:02:42.329Z,22.10
2018-09-19T17:05:10.653Z,21.90
2018-09-19T17:07:38.903Z,21.70
2018-09-19T17:10:07.365Z,21.60
2018-09-19T17:12:36.287Z,21.50
2018-09-19T17:15:05.398Z,21.40
2018-09-19T17:17:34.365Z,21.40
2018-09-19T17:20:02.741Z,21.40
2018-09-19T17:22:31.320Z,21.40
2018-09-19T17:25:00.487Z,21.30
2018-09-19T17:27:28.689Z,21.30
2018-09-19T17:29:58.774Z,21.10
2018-09-19T17:32:27.153Z,21.00
2018-09-19T17:34:56.789Z,20.90
2018-09-19T17:37:25.651Z,20.80
2018-09-19T17:39:53.955Z,20.70
2018-09-19T17:42:22.576Z,20.70
2018-09-19T17:44:51.015Z,20.70
2018-09-19T17:47:19.407Z,20.70
2018-09-19T17:49:47.842Z,20.70
2018-09-19T17:52:16.139Z,20.60
2018-09-19T17:54:44.500Z,20.60
2018-09-19T17:57:12.866Z,20.60
2018-09-19T17:59:41.065Z,20.50
2018-09-19T18:02:09.348Z,20.50
2018-09-19T18:04:37.500Z,20.40
2018-09-19T18:07:06.152Z,20.30
2018-09-19T18:09:34.601Z,20.20
2018-09-19T18:12:02.988Z,20.20
2018-09-19T18:14:31.315Z,20.10
2018-09-19T18:16:59.636Z,20.00
2018-09-19T18:19:28.125Z,19.90
2018-09-19T18:21:56.476Z,19.90
2018-09-19T18:24:24.764Z,19.90
2018-09-19T18:26:53.028Z,19.90
2018-09-19T18:29:21.258Z,19.90
2018-09-19T18:31:49.520Z,19.80
2018-09-19T18:34:17.689Z,19.70
2018-09-19T18:36:45.965Z,19.70
2018-09-19T18:39:14.212Z,19.60
2018-09-19T18:41:42.345Z,19.60
2018-09-19T18:44:10.591Z,19.50
2018-09-19T18:46:38.735Z,19.40
2018-09-19T18:49:07.051Z,19.30
2018-09-19T18:51:35.323Z,19.30
2018-09-19T18:54:04.637Z,19.20
2018-09-19T18:56:33.493Z,19.20
2018-09-19T18:59:02.013Z,19.10
2018-09-19T19:01:30.615Z,19.10
2018-09-19T19:03:58.949Z,19.00
2018-09-19T19:06:27.158Z,19.00
2018-09-19T19:08:55.407Z,19.00
2018-09-19T19:11:23.722Z,19.00
2018-09-19T19:13:51.999Z,18.90
2018-09-19T19:16:20.185Z,18.90
2018-09-19T19:18:49.047Z,18.90
2018-09-19T19:21:17.412Z,18.80
2018-09-19T19:23:45.680Z,18.80
2018-09-19T19:26:13.917Z,18.80
2018-09-19T19:28:42.810Z,18.80
2018-09-19T19:31:10.958Z,18.70
2018-09-19T19:33:39.677Z,18.70
2018-09-19T19:36:08.553Z,18.70
2018-09-19T19:38:41.135Z,18.60
2018-09-19T19:41:09.556Z,18.60
2018-09-19T19:43:37.639Z,18.60
2018-09-19T19:46:05.878Z,18.50
2018-09-19T19:48:33.966Z,18.50
2018-09-19T19:51:02.030Z,18.40
2018-09-19T19:53:30.234Z,18.30
2018-09-19T19:55:58.304Z,18.30
2018-09-19T19:58:26.449Z,18.30
2018-09-19T20:00:54.540Z,18.20
2018-09-19T20:03:22.672Z,18.20
2018-09-19T20:05:50.726Z,18.20
2018-09-19T20:08:19.171Z,18.10
2018-09-19T20:10:47.299Z,18.10
2018-09-19T20:13:15.488Z,18.10
2018-09-19T20:15:43.703Z,18.10
2018-09-19T20:18:11.842Z,18.00
2018-09-19T20:20:39.987Z,18.00
2018-09-19T20:23:08.154Z,18.00
2018-09-19T20:25:36.496Z,17.90
2018-09-19T20:28:04.759Z,17.90
2018-09-19T20:30:32.900Z,17.90
2018-09-19T20:33:01.024Z,17.80
2018-09-19T20:35:29.311Z,17.80
2018-09-19T20:37:57.436Z,17.80
2018-09-19T20:40:25.639Z,17.80
2018-09-19T20:42:53.739Z,17.80
2018-09-19T20:45:21.860Z,17.80
2018-09-19T20:47:49.960Z,17.70
2018-09-19T20:50:18.036Z,17.70
2018-09-19T20:52:46.154Z,17.70
2018-09-19T20:55:14.344Z,17.70
2018-09-19T20:57:42.560Z,17.60
2018-09-19T21:00:10.797Z,17.60
2018-09-19T21:02:39.010Z,17.60
2018-09-19T21:05:07.169Z,17.50
2018-09-19T21:07:35.375Z,17.50
2018-09-19T21:10:03.661Z,17.40
2018-09-19T21:12:31.911Z,17.50
2018-09-19T21:15:00.021Z,17.50
2018-09-19T21:17:28.233Z,17.40
2018-09-19T21:19:56.530Z,17.40
2018-09-19T21:22:24.878Z,17.40
2018-09-19T21:24:52.854Z,17.30
2018-09-19T21:27:20.962Z,17.30
2018-09-19T21:29:49.061Z,17.40
2018-09-19T21:32:17.254Z,17.30
2018-09-19T21:34:45.335Z,17.40
2018-09-19T21:37:13.609Z,17.30
2018-09-19T21:39:41.769Z,17.30
2018-09-19T21:42:13.829Z,17.30
2018-09-19T21:44:42.103Z,17.10
2018-09-19T21:47:10.389Z,17.10
2018-09-19T21:49:38.607Z,17.10
2018-09-19T21:52:06.793Z,17.10
2018-09-19T21:54:35.091Z,17.00
2018-09-19T21:57:03.486Z,17.00
2018-09-19T21:59:31.733Z,17.00
2018-09-19T22:02:00.743Z,17.00
2018-09-19T22:04:29.891Z,16.90
2018-09-19T22:06:58.239Z,16.90
2018-09-19T22:09:26.414Z,16.90
2018-09-19T22:11:54.601Z,16.90
2018-09-19T22:14:22.799Z,16.90
2018-09-19T22:16:51.044Z,16.80
2018-09-19T22:19:19.403Z,16.80
2018-09-19T22:21:47.634Z,16.80
2018-09-19T22:24:15.771Z,16.90
2018-09-19T22:26:43.968Z,16.80
2018-09-19T22:29:12.131Z,16.80
2018-09-19T22:31:40.271Z,16.80
2018-09-19T22:34:08.353Z,16.80
2018-09-19T22:36:36.428Z,16.80
2018-09-19T22:39:06.926Z,16.80
2018-09-19T22:41:35.116Z,16.70
2018-09-19T22:44:03.221Z,16.70
2018-09-19T22:46:31.268Z,16.70
2018-09-19T22:48:59.359Z,16.60
2018-09-19T22:51:27.878Z,16.70
2018-09-19T22:53:56.144Z,16.60
2018-09-19T22:56:24.310Z,16.60
2018-09-19T22:58:52.417Z,16.60
2018-09-19T23:01:20.474Z,16.60
2018-09-19T23:03:48.567Z,16.50
2018-09-19T23:06:17.141Z,16.60
2018-09-19T23:08:45.278Z,16.50
2018-09-19T23:11:13.351Z,16.60
2018-09-19T23:13:41.482Z,16.50
2018-09-19T23:16:09.576Z,16.50
2018-09-19T23:18:37.683Z,16.50
2018-09-19T23:21:05.814Z,16.40
2018-09-19T23:23:33.960Z,16.40
2018-09-19T23:26:02.114Z,16.40
2018-09-19T23:28:30.229Z,16.30
2018-09-19T23:30:58.294Z,16.30
2018-09-19T23:33:26.470Z,16.30
2018-09-19T23:35:54.592Z,16.30
2018-09-19T23:38:22.799Z,16.30
2018-09-19T23:40:50.857Z,16.30
2018-09-19T23:43:18.941Z,16.20
2018-09-19T23:45:47.103Z,16.20
2018-09-19T23:48:15.165Z,16.20
2018-09-19T23:50:43.284Z,16.20
2018-09-19T23:53:11.399Z,16.20
2018-09-19T23:55:39.461Z,16.20
2018-09-19T23:58:07.625Z,16.20
